Time;durP1;ratioP1;P1;durP2;ratioP2;P2;SDS_P1;SDS_P2;PMS_P1;PMS_P2;Temp;Humidity;BMP_temperature;BMP_pressure;BME280_temperature;BME280_humidity;BME280_pressure;Samples;Min_cycle;Max_cycle;Signal;HPM_P1;HPM_P2
2023/04/16 00:01:38;;;;;;;86.95;36.60;;;8.60;99.90;;;;;;5042658;28;20828;-75
2023/04/16 00:04:04;;;;;;;83.70;35.95;;;8.50;99.90;;;;;;5043117;28;20828;-75
2023/04/16 00:06:30;;;;;;;87.63;36.55;;;8.60;99.90;;;;;;5042465;28;20516;-75
2023/04/16 00:08:56;;;;;;;84.28;36.50;;;8.60;99.90;;;;;;5042315;28;20422;-76
2023/04/16 00:11:22;;;;;;;87.70;34.77;;;8.70;99.90;;;;;;5043080;28;20867;-75
2023/04/16 00:13:48;;;;;;;86.27;34.60;;;8.70;99.90;;;;;;5023543;28;20479;-74
2023/04/16 00:16:14;;;;;;;89.15;37.40;;;8.60;99.90;;;;;;5045907;28;20822;-74
2023/04/16 00:18:40;;;;;;;86.63;35.77;;;8.70;99.90;;;;;;5044555;28;20907;-76
2023/04/16 00:21:06;;;;;;;92.28;37.33;;;8.50;99.90;;;;;;5046729;28;20500;-78
2023/04/16 00:23:32;;;;;;;81.15;34.05;;;8.70;99.90;;;;;;5046442;28;20416;-75
2023/04/16 00:25:58;;;;;;;77.63;35.60;;;8.60;99.90;;;;;;5046210;28;20466;-75
2023/04/16 00:28:25;;;;;;;75.18;35.17;;;8.60;99.90;;;;;;5046676;28;20403;-79
2023/04/16 00:30:51;;;;;;;83.03;35.50;;;8.60;99.90;;;;;;5046833;28;20440;-75
2023/04/16 00:33:16;;;;;;;80.13;36.47;;;8.60;99.90;;;;;;5045076;28;20772;-76
2023/04/16 00:35:45;;;;;;;76.25;34.20;;;8.60;99.90;;;;;;5047319;28;20413;-76
2023/04/16 00:38:11;;;;;;;81.40;33.47;;;8.60;99.90;;;;;;5049840;28;20524;-76
2023/04/16 00:40:37;;;;;;;92.57;35.90;;;8.60;99.90;;;;;;5048063;28;20449;-77
2023/04/16 00:43:03;;;;;;;85.73;35.20;;;8.60;99.90;;;;;;5050447;28;20406;-78
2023/04/16 00:45:29;;;;;;;78.37;33.00;;;8.70;99.90;;;;;;5049474;28;20405;-77
2023/04/16 00:47:55;;;;;;;84.22;35.58;;;8.70;99.90;;;;;;5049739;28;20409;-77
2023/04/16 00:50:21;;;;;;;86.47;35.47;;;8.70;99.90;;;;;;5048037;28;21105;-76
2023/04/16 00:52:48;;;;;;;86.47;35.65;;;8.70;99.90;;;;;;5049244;28;20461;-77
2023/04/16 00:55:16;;;;;;;84.05;34.03;;;8.70;99.90;;;;;;5047381;28;20454;-76
2023/04/16 00:57:42;;;;;;;89.78;35.38;;;8.70;99.90;;;;;;5048144;28;20402;-76
2023/04/16 01:00:08;;;;;;;88.20;35.35;;;8.60;99.90;;;;;;5049125;28;20401;-75
2023/04/16 01:02:34;;;;;;;96.70;36.55;;;8.60;99.90;;;;;;5050589;28;20409;-77
2023/04/16 01:05:01;;;;;;;77.57;32.90;;;8.70;99.90;;;;;;5049217;28;20767;-77
2023/04/16 01:07:27;;;;;;;84.13;35.38;;;8.60;99.90;;;;;;5044074;28;20432;-78
2023/04/16 01:09:52;;;;;;;67.18;33.53;;;8.70;99.90;;;;;;5043789;28;20429;-75
2023/04/16 01:12:18;;;;;;;72.78;32.30;;;8.70;99.90;;;;;;5045537;28;20441;-77
2023/04/16 01:14:44;;;;;;;75.65;34.03;;;8.70;99.90;;;;;;5044156;28;20409;-77
2023/04/16 01:17:09;;;;;;;76.00;34.28;;;8.80;99.90;;;;;;5043953;28;20404;-77
2023/04/16 01:19:35;;;;;;;70.95;31.25;;;8.70;99.90;;;;;;5045123;28;20500;-79
2023/04/16 01:22:01;;;;;;;74.63;33.73;;;8.70;99.90;;;;;;5027407;28;20409;-76
2023/04/16 01:24:27;;;;;;;64.95;32.88;;;8.70;99.90;;;;;;5044494;28;20401;-79
2023/04/16 01:26:53;;;;;;;66.45;31.27;;;8.70;99.90;;;;;;5044615;28;20939;-78
2023/04/16 01:29:18;;;;;;;67.47;31.23;;;8.60;99.90;;;;;;5044308;28;20425;-77
2023/04/16 01:31:45;;;;;;;67.20;31.25;;;8.70;99.90;;;;;;5045072;28;20416;-77
2023/04/16 01:34:11;;;;;;;71.20;32.28;;;8.60;99.90;;;;;;5045251;28;20923;-78
2023/04/16 01:36:37;;;;;;;68.03;30.98;;;8.60;99.90;;;;;;5045964;28;20401;-77
2023/04/16 01:39:03;;;;;;;71.78;32.05;;;8.70;99.90;;;;;;5045521;28;20437;-76
2023/04/16 01:41:30;;;;;;;66.95;29.60;;;8.60;99.90;;;;;;5045688;28;20593;-76
2023/04/16 01:43:56;;;;;;;75.85;32.05;;;8.60;99.90;;;;;;5044189;28;20441;-77
2023/04/16 01:46:30;;;;;;;73.88;33.88;;;8.60;99.90;;;;;;5045393;28;20440;-77
2023/04/16 01:48:56;;;;;;;76.13;31.48;;;8.50;99.90;;;;;;5045113;28;20962;-77
2023/04/16 01:51:22;;;;;;;82.70;32.67;;;8.50;99.90;;;;;;5045123;28;20420;-75
2023/04/16 01:53:49;;;;;;;68.38;30.95;;;8.70;99.90;;;;;;5044768;28;20512;-77
2023/04/16 01:56:15;;;;;;;70.45;32.20;;;8.50;99.90;;;;;;5044988;28;20417;-76
2023/04/16 01:58:41;;;;;;;75.68;33.33;;;8.50;99.90;;;;;;5042428;28;20459;-77
2023/04/16 02:01:08;;;;;;;71.32;31.70;;;8.60;99.90;;;;;;5044013;28;20438;-77
2023/04/16 02:03:33;;;;;;;77.77;33.30;;;8.70;99.90;;;;;;5043649;28;20495;-78
2023/04/16 02:06:00;;;;;;;66.32;30.10;;;8.60;99.90;;;;;;5044499;28;20493;-77
2023/04/16 02:08:26;;;;;;;62.92;30.15;;;8.60;99.90;;;;;;5044932;28;20535;-78
2023/04/16 02:10:51;;;;;;;69.50;32.53;;;8.60;99.90;;;;;;5044437;28;20456;-76
2023/04/16 02:13:17;;;;;;;70.87;33.33;;;8.70;99.90;;;;;;5042574;28;20394;-78
2023/04/16 02:15:47;;;;;;;74.70;35.17;;;8.50;99.90;;;;;;5043106;28;20484;-76
2023/04/16 02:18:13;;;;;;;77.18;34.55;;;8.60;99.90;;;;;;5044684;28;20481;-77
2023/04/16 02:20:46;;;;;;;79.07;37.20;;;8.60;99.90;;;;;;5044277;28;20481;-77
2023/04/16 02:23:13;;;;;;;71.38;34.78;;;8.50;99.90;;;;;;5044633;28;20458;-77
2023/04/16 02:25:44;;;;;;;83.22;37.78;;;8.50;99.90;;;;;;5043122;28;20955;-77
2023/04/16 02:28:12;;;;;;;72.15;35.88;;;8.50;99.90;;;;;;5043356;28;20783;-78
2023/04/16 02:30:39;;;;;;;77.50;35.80;;;8.50;99.90;;;;;;5044302;28;20437;-76
2023/04/16 02:33:06;;;;;;;80.82;37.40;;;8.40;99.90;;;;;;5044746;28;20946;-75
2023/04/16 02:35:36;;;;;;;89.88;36.85;;;8.50;99.90;;;;;;5043141;28;20420;-76
2023/04/16 02:38:03;;;;;;;85.18;38.25;;;8.50;99.90;;;;;;5043913;28;20432;-76
2023/04/16 02:40:29;;;;;;;82.03;38.67;;;8.60;99.90;;;;;;5042909;28;20410;-76
2023/04/16 02:42:55;;;;;;;88.05;38.05;;;8.50;99.90;;;;;;5044051;28;20424;-76
2023/04/16 02:45:22;;;;;;;83.30;39.25;;;8.50;99.90;;;;;;5043355;28;20787;-77
2023/04/16 02:47:48;;;;;;;91.40;39.40;;;8.50;99.90;;;;;;5044032;28;20543;-76
2023/04/16 02:50:14;;;;;;;92.97;41.97;;;8.50;99.90;;;;;;5044097;28;20432;-76
2023/04/16 02:52:40;;;;;;;96.00;42.20;;;8.50;99.90;;;;;;5043912;28;20405;-76
2023/04/16 02:55:07;;;;;;;91.47;40.58;;;8.50;99.90;;;;;;5044079;28;20417;-77
2023/04/16 02:57:32;;;;;;;88.00;37.83;;;8.50;99.90;;;;;;5044084;28;20420;-76
2023/04/16 02:59:58;;;;;;;85.30;38.47;;;8.40;99.90;;;;;;5043280;28;20499;-77
2023/04/16 03:02:24;;;;;;;84.53;38.37;;;8.50;99.90;;;;;;5042933;28;20491;-76
2023/04/16 03:04:49;;;;;;;76.43;35.93;;;8.50;99.90;;;;;;5043920;28;20441;-77
2023/04/16 03:07:17;;;;;;;82.07;36.90;;;8.40;99.90;;;;;;5042774;28;20414;-76
2023/04/16 03:09:42;;;;;;;82.07;36.45;;;8.40;99.90;;;;;;5044006;28;20413;-77
2023/04/16 03:12:08;;;;;;;83.13;38.03;;;8.50;99.90;;;;;;5044292;28;20787;-77
2023/04/16 03:14:34;;;;;;;80.03;35.92;;;8.50;99.90;;;;;;5043325;28;20393;-78
2023/04/16 03:17:00;;;;;;;84.70;42.03;;;8.50;99.90;;;;;;5044032;28;20410;-77
2023/04/16 03:19:25;;;;;;;83.87;40.17;;;8.40;99.90;;;;;;5042920;28;20424;-75
2023/04/16 03:21:51;;;;;;;93.93;40.20;;;8.50;99.90;;;;;;5043462;28;20433;-77
2023/04/16 03:24:17;;;;;;;84.53;38.17;;;8.50;99.90;;;;;;5044066;28;20934;-77
2023/04/16 03:26:42;;;;;;;92.27;42.13;;;8.40;99.90;;;;;;5043455;28;20485;-75
2023/04/16 03:29:08;;;;;;;95.20;40.93;;;8.50;99.90;;;;;;5041623;28;20429;-76
2023/04/16 03:31:34;;;;;;;102.87;45.07;;;8.60;99.90;;;;;;5044555;28;20463;-77
2023/04/16 03:34:00;;;;;;;78.73;39.10;;;8.40;99.90;;;;;;5043894;28;20412;-77
2023/04/16 03:36:28;;;;;;;101.22;40.63;;;8.40;99.90;;;;;;5043907;28;20428;-77
2023/04/16 03:38:54;;;;;;;85.73;39.00;;;8.50;99.90;;;;;;5043443;28;20406;-76
2023/04/16 03:41:20;;;;;;;78.10;37.80;;;8.40;99.90;;;;;;5044275;28;20413;-78
2023/04/16 03:43:46;;;;;;;85.15;39.95;;;8.50;99.90;;;;;;5042456;28;20409;-77
2023/04/16 03:46:11;;;;;;;78.83;37.43;;;8.50;99.90;;;;;;5043528;28;20420;-76
2023/04/16 03:48:37;;;;;;;93.90;41.20;;;8.50;99.90;;;;;;5042652;28;20516;-75
2023/04/16 03:51:03;;;;;;;83.67;40.90;;;8.40;99.90;;;;;;5046519;28;20501;-77
2023/04/16 03:53:28;;;;;;;101.47;43.00;;;8.60;99.90;;;;;;5047145;28;20401;-78
2023/04/16 03:55:54;;;;;;;93.17;41.80;;;8.60;99.90;;;;;;5048096;28;20417;-76
2023/04/16 03:58:20;;;;;;;87.03;40.95;;;8.60;99.90;;;;;;5046165;28;20475;-78
2023/04/16 04:00:46;;;;;;;88.22;39.95;;;8.50;99.90;;;;;;5046718;28;21007;-80
2023/04/16 04:03:12;;;;;;;90.10;39.27;;;8.50;99.90;;;;;;5047735;28;20402;-77
2023/04/16 04:05:41;;;;;;;80.47;36.92;;;8.50;99.90;;;;;;5028648;28;20944;-76
2023/04/16 04:08:07;;;;;;;83.53;39.95;;;8.50;99.90;;;;;;5045558;28;20496;-77
2023/04/16 04:10:34;;;;;;;89.43;36.22;;;8.60;99.90;;;;;;5047435;28;20433;-77
2023/04/16 04:13:02;;;;;;;81.78;36.42;;;8.60;99.90;;;;;;5045847;28;20405;-78
2023/04/16 04:15:28;;;;;;;74.47;35.10;;;8.60;99.90;;;;;;5045807;28;20771;-76
2023/04/16 04:17:54;;;;;;;86.05;36.30;;;8.50;99.90;;;;;;5046737;28;20402;-75
2023/04/16 04:20:19;;;;;;;73.40;33.80;;;8.50;99.90;;;;;;5046967;28;20437;-76
2023/04/16 04:22:45;;;;;;;72.10;33.23;;;8.60;99.90;;;;;;5045272;28;20400;-77
2023/04/16 04:25:11;;;;;;;72.78;32.75;;;8.60;99.90;;;;;;5046907;28;20409;-76
2023/04/16 04:27:37;;;;;;;70.18;34.85;;;8.50;99.90;;;;;;5046962;28;20409;-77
2023/04/16 04:30:05;;;;;;;68.90;29.77;;;8.50;99.90;;;;;;5045833;28;20474;-77
2023/04/16 04:32:31;;;;;;;72.30;31.65;;;8.50;99.90;;;;;;5046798;28;20435;-77
2023/04/16 04:34:58;;;;;;;78.32;30.92;;;8.60;99.90;;;;;;5044687;28;20397;-77
2023/04/16 04:37:24;;;;;;;72.37;31.53;;;8.40;99.90;;;;;;5045323;28;21081;-76
2023/04/16 04:39:49;;;;;;;83.23;33.33;;;8.50;99.90;;;;;;5046121;28;20390;-76
2023/04/16 04:42:19;;;;;;;83.03;33.40;;;8.50;99.90;;;;;;5045858;28;20405;-76
2023/04/16 04:44:45;;;;;;;73.40;31.73;;;8.50;99.90;;;;;;5043877;28;20405;-77
2023/04/16 04:47:10;;;;;;;73.13;31.08;;;8.60;99.90;;;;;;5046619;28;20456;-77
2023/04/16 04:49:36;;;;;;;75.45;31.70;;;8.50;99.90;;;;;;5045712;28;20457;-79
2023/04/16 04:52:01;;;;;;;69.72;31.38;;;8.60;99.90;;;;;;5045918;28;20402;-77
2023/04/16 04:54:29;;;;;;;75.32;31.38;;;8.60;99.90;;;;;;5045960;28;20413;-77
2023/04/16 04:56:55;;;;;;;73.27;31.70;;;8.60;99.90;;;;;;5045923;28;20937;-75
2023/04/16 04:59:21;;;;;;;68.72;30.88;;;8.70;99.90;;;;;;5045363;28;20448;-77
2023/04/16 05:01:47;;;;;;;68.38;30.17;;;8.60;99.90;;;;;;5045229;28;20413;-75
2023/04/16 05:04:13;;;;;;;64.90;28.10;;;8.60;99.90;;;;;;5046091;28;20418;-76
2023/04/16 05:06:38;;;;;;;63.07;28.17;;;8.60;99.90;;;;;;5045495;28;20413;-77
2023/04/16 05:09:04;;;;;;;52.93;26.17;;;8.60;99.90;;;;;;5046023;28;20397;-77
2023/04/16 05:11:32;;;;;;;64.27;27.80;;;8.70;99.90;;;;;;5044547;28;21022;-77
2023/04/16 05:13:58;;;;;;;61.92;27.48;;;8.70;99.90;;;;;;5044939;28;20412;-76
2023/04/16 05:16:24;;;;;;;70.38;27.38;;;8.70;99.90;;;;;;5044550;28;20417;-78
2023/04/16 05:18:49;;;;;;;60.63;26.92;;;8.70;99.90;;;;;;5044364;28;20424;-77
2023/04/16 05:21:15;;;;;;;72.22;29.23;;;8.80;99.90;;;;;;5045937;28;20935;-76
2023/04/16 05:23:41;;;;;;;61.60;27.13;;;8.90;99.90;;;;;;5045380;28;20420;-77
2023/04/16 05:26:06;;;;;;;73.13;30.00;;;8.90;99.90;;;;;;5045875;28;20783;-77
2023/04/16 05:28:32;;;;;;;62.17;28.90;;;8.80;99.90;;;;;;5043865;28;20412;-76
2023/04/16 05:30:58;;;;;;;65.07;27.97;;;8.90;99.90;;;;;;5044041;28;20503;-76
2023/04/16 05:33:24;;;;;;;66.80;28.83;;;8.90;99.90;;;;;;5046181;28;20393;-77
2023/04/16 05:35:49;;;;;;;79.40;28.80;;;8.80;99.90;;;;;;5045514;28;20413;-78
2023/04/16 05:38:15;;;;;;;77.40;31.00;;;8.80;99.90;;;;;;5045715;28;20668;-77
2023/04/16 05:40:41;;;;;;;66.50;28.67;;;8.90;99.90;;;;;;5045212;28;20405;-78
2023/04/16 05:43:06;;;;;;;70.23;31.07;;;8.80;99.90;;;;;;5042767;28;20507;-77
2023/04/16 05:45:38;;;;;;;70.63;30.63;;;8.80;99.90;;;;;;5045517;28;20489;-78
2023/04/16 05:48:04;;;;;;;66.68;29.45;;;8.80;99.90;;;;;;5027938;28;20463;-76
2023/04/16 05:50:30;;;;;;;77.10;30.42;;;8.80;99.90;;;;;;5044528;28;20721;-76
2023/04/16 05:52:55;;;;;;;67.70;28.67;;;8.80;99.90;;;;;;5045193;28;20459;-77
2023/04/16 05:55:21;;;;;;;68.10;28.07;;;8.90;99.90;;;;;;5043821;28;20803;-77
2023/04/16 05:57:47;;;;;;;81.47;31.67;;;8.90;99.90;;;;;;5043857;28;20454;-77
2023/04/16 06:00:12;;;;;;;74.13;30.07;;;8.80;99.90;;;;;;5045786;28;20437;-78
2023/04/16 06:02:38;;;;;;;70.93;28.85;;;8.80;99.90;;;;;;5045065;28;20919;-75
2023/04/16 06:05:04;;;;;;;66.38;30.48;;;8.90;99.90;;;;;;5045468;28;20409;-76
2023/04/16 06:07:30;;;;;;;73.57;28.42;;;9.10;99.90;;;;;;5044891;28;20567;-75
2023/04/16 06:09:55;;;;;;;67.30;28.73;;;9.00;99.90;;;;;;5044645;28;20863;-76
2023/04/16 06:12:21;;;;;;;69.97;28.47;;;8.90;99.90;;;;;;5042387;28;20417;-76
2023/04/16 06:14:47;;;;;;;60.22;27.30;;;8.80;99.90;;;;;;5043546;28;20768;-76
2023/04/16 06:17:12;;;;;;;62.40;28.45;;;8.90;99.90;;;;;;5044957;28;20406;-75
2023/04/16 06:19:38;;;;;;;76.00;31.02;;;8.90;99.90;;;;;;5042701;28;20409;-76
2023/04/16 06:22:05;;;;;;;67.68;30.20;;;8.90;99.90;;;;;;5044779;28;20409;-76
2023/04/16 06:24:31;;;;;;;72.68;29.80;;;8.90;99.90;;;;;;5044212;28;20406;-76
2023/04/16 06:26:56;;;;;;;65.25;29.58;;;9.00;99.90;;;;;;5026355;28;20842;-76
2023/04/16 06:29:22;;;;;;;71.45;30.15;;;8.90;99.90;;;;;;5042507;28;20421;-76
2023/04/16 06:31:48;;;;;;;71.60;29.45;;;8.90;99.90;;;;;;5044192;28;20409;-75
2023/04/16 06:34:14;;;;;;;69.50;29.75;;;8.80;99.90;;;;;;5047178;28;20401;-75
2023/04/16 06:36:39;;;;;;;69.18;28.83;;;9.10;99.90;;;;;;5026328;28;20760;-75
2023/04/16 06:39:05;;;;;;;65.15;27.33;;;8.90;99.90;;;;;;5044428;28;20412;-75
2023/04/16 06:41:31;;;;;;;53.90;26.15;;;9.10;99.90;;;;;;5043084;28;20421;-78
2023/04/16 06:43:56;;;;;;;53.00;26.05;;;9.20;99.90;;;;;;5042989;28;20825;-76
2023/04/16 06:46:22;;;;;;;52.28;24.77;;;9.10;99.90;;;;;;5044128;28;20416;-76
2023/04/16 06:48:48;;;;;;;44.87;23.77;;;9.20;99.90;;;;;;5043767;28;20485;-76
2023/04/16 06:51:13;;;;;;;50.50;26.27;;;9.20;99.90;;;;;;5044346;28;20476;-77
2023/04/16 06:53:39;;;;;;;57.53;25.43;;;9.30;99.90;;;;;;5043565;28;20475;-75
2023/04/16 06:56:05;;;;;;;58.00;26.03;;;9.20;99.90;;;;;;5044811;28;20394;-76
2023/04/16 06:58:31;;;;;;;55.05;26.73;;;9.30;99.90;;;;;;5043872;28;20419;-80
2023/04/16 07:00:58;;;;;;;53.65;25.90;;;9.30;99.90;;;;;;5043907;28;20409;-76
2023/04/16 07:03:23;;;;;;;51.63;23.95;;;9.40;99.90;;;;;;5044064;28;20406;-77
2023/04/16 07:05:49;;;;;;;57.75;27.17;;;9.50;99.90;;;;;;5043796;28;20504;-76
2023/04/16 07:08:15;;;;;;;51.75;25.67;;;9.50;99.90;;;;;;5044349;28;20416;-77
2023/04/16 07:10:40;;;;;;;50.88;24.00;;;9.40;99.90;;;;;;5044040;28;20432;-76
2023/04/16 07:13:07;;;;;;;55.30;24.95;;;9.60;99.90;;;;;;5042109;28;20401;-78
2023/04/16 07:15:32;;;;;;;54.78;25.63;;;9.50;99.90;;;;;;5044286;28;20752;-78
2023/04/16 07:17:58;;;;;;;51.70;22.75;;;9.50;99.90;;;;;;5043822;28;20393;-76
2023/04/16 07:20:24;;;;;;;47.25;23.55;;;9.60;99.90;;;;;;5044048;28;20942;-77
2023/04/16 07:22:49;;;;;;;52.92;25.02;;;9.70;99.90;;;;;;5041878;28;20401;-77
2023/04/16 07:25:15;;;;;;;48.88;24.60;;;9.80;99.90;;;;;;5047053;28;20409;-75
2023/04/16 07:27:40;;;;;;;37.47;21.17;;;9.90;99.90;;;;;;5046774;28;20397;-78
2023/04/16 07:30:08;;;;;;;43.87;22.20;;;10.00;99.90;;;;;;5047761;28;20452;-76
2023/04/16 07:32:34;;;;;;;46.00;22.33;;;9.90;99.90;;;;;;5046310;28;20480;-77
2023/04/16 07:34:59;;;;;;;48.92;21.95;;;9.90;99.90;;;;;;5047193;28;20409;-76
2023/04/16 07:37:25;;;;;;;46.97;22.02;;;9.90;99.90;;;;;;5047291;28;20409;-76
2023/04/16 07:39:51;;;;;;;46.20;22.00;;;10.00;99.90;;;;;;5047483;28;20409;-76
2023/04/16 07:42:17;;;;;;;44.58;20.92;;;9.90;99.90;;;;;;5046751;28;20466;-78
2023/04/16 07:44:43;;;;;;;42.80;21.05;;;10.30;99.90;;;;;;5047307;28;20733;-75
2023/04/16 07:47:08;;;;;;;49.42;23.33;;;10.10;99.90;;;;;;5029703;28;20788;-78
2023/04/16 07:49:34;;;;;;;54.28;21.33;;;10.30;99.90;;;;;;5047552;28;20424;-77
2023/04/16 07:52:00;;;;;;;57.08;22.63;;;10.20;99.90;;;;;;5047000;28;20405;-76
2023/04/16 07:54:26;;;;;;;46.67;22.33;;;10.30;99.90;;;;;;5047974;28;20406;-76
2023/04/16 07:56:52;;;;;;;49.13;22.13;;;10.30;99.90;;;;;;5047798;28;20977;-77
2023/04/16 07:59:17;;;;;;;48.67;22.50;;;10.40;99.90;;;;;;5046127;28;20398;-76
2023/04/16 08:01:43;;;;;;;50.43;21.57;;;10.60;99.90;;;;;;5045754;28;20479;-76
2023/04/16 08:04:09;;;;;;;43.67;21.70;;;10.70;99.90;;;;;;5047207;28;20501;-77
2023/04/16 08:06:34;;;;;;;47.60;21.67;;;10.70;99.90;;;;;;5045707;28;20429;-75
2023/04/16 08:09:00;;;;;;;41.50;20.65;;;10.60;99.90;;;;;;5045387;28;20409;-76
2023/04/16 08:11:26;;;;;;;41.35;18.67;;;10.80;99.90;;;;;;5047269;28;20417;-77
2023/04/16 08:13:51;;;;;;;40.27;20.63;;;11.20;99.90;;;;;;5044274;28;20437;-75
2023/04/16 08:16:17;;;;;;;33.33;18.07;;;10.90;99.90;;;;;;5045030;28;20417;-76
2023/04/16 08:18:42;;;;;;;38.67;19.73;;;11.00;99.90;;;;;;5046339;28;20728;-75
2023/04/16 08:21:08;;;;;;;36.17;18.27;;;11.10;99.90;;;;;;5046603;28;21092;-76
2023/04/16 08:23:34;;;;;;;33.28;18.48;;;11.00;99.90;;;;;;5045518;28;20405;-76
2023/04/16 08:26:00;;;;;;;36.78;18.58;;;11.40;99.90;;;;;;5046164;28;20496;-75
2023/04/16 08:28:26;;;;;;;42.70;20.53;;;11.50;99.90;;;;;;5028033;28;20417;-76
2023/04/16 08:30:52;;;;;;;41.57;19.17;;;11.40;99.90;;;;;;5046377;28;20429;-76
2023/04/16 08:33:18;;;;;;;35.97;17.03;;;11.40;99.90;;;;;;5046240;28;20887;-76
2023/04/16 08:35:43;;;;;;;39.08;18.90;;;11.30;99.90;;;;;;5045006;28;20474;-76
2023/04/16 08:38:09;;;;;;;44.53;21.53;;;11.60;99.90;;;;;;5047128;28;21073;-75
2023/04/16 08:40:38;;;;;;;39.55;19.70;;;11.80;99.90;;;;;;5047370;28;20406;-75
2023/04/16 08:43:10;;;;;;;34.97;19.02;;;12.00;99.90;;;;;;5045459;28;20800;-74
2023/04/16 08:45:37;;;;;;;42.03;19.67;;;11.90;99.90;;;;;;5047261;28;20401;-78
2023/04/16 08:48:04;;;;;;;40.28;18.40;;;12.00;99.90;;;;;;5046470;28;20416;-75
2023/04/16 08:50:33;;;;;;;41.33;20.73;;;12.10;99.90;;;;;;5044520;28;20429;-75
2023/04/16 08:53:02;;;;;;;35.85;17.95;;;12.30;99.90;;;;;;5045512;28;20495;-75
2023/04/16 08:55:47;;;;;;;37.67;17.77;;;12.40;99.90;;;;;;5045723;28;20406;-76
2023/04/16 08:58:14;;;;;;;38.85;19.25;;;12.30;99.90;;;;;;5045074;28;20416;-75
2023/04/16 09:00:40;;;;;;;38.63;19.23;;;12.30;99.90;;;;;;5045573;28;20407;-74
2023/04/16 09:03:07;;;;;;;42.30;20.65;;;12.20;99.90;;;;;;5045583;28;20417;-76
2023/04/16 09:05:33;;;;;;;39.50;20.35;;;12.50;99.90;;;;;;5044004;28;20417;-77
2023/04/16 09:07:59;;;;;;;39.15;19.13;;;12.70;99.90;;;;;;5044666;28;20874;-76
2023/04/16 09:10:25;;;;;;;43.40;18.60;;;12.40;99.90;;;;;;5045858;28;20975;-76
2023/04/16 09:12:54;;;;;;;35.70;18.08;;;12.80;99.90;;;;;;5044833;28;20822;-76
2023/04/16 09:15:20;;;;;;;36.80;18.50;;;12.60;99.90;;;;;;5045379;28;20559;-75
2023/04/16 09:17:46;;;;;;;38.40;20.35;;;12.40;99.90;;;;;;5045374;28;20398;-75
2023/04/16 09:20:12;;;;;;;41.30;21.02;;;12.30;99.90;;;;;;5045694;28;20415;-75
2023/04/16 09:22:41;;;;;;;38.63;18.85;;;12.40;99.90;;;;;;5044910;28;20394;-75
2023/04/16 09:25:07;;;;;;;38.75;19.70;;;12.50;99.90;;;;;;5044375;28;20424;-77
2023/04/16 09:27:33;;;;;;;39.72;17.73;;;12.40;99.90;;;;;;5044754;28;20480;-77
2023/04/16 09:29:59;;;;;;;41.67;19.33;;;12.60;99.90;;;;;;5045372;28;20551;-75
2023/04/16 09:32:26;;;;;;;37.23;18.90;;;12.60;99.90;;;;;;5043906;28;20756;-75
2023/04/16 09:35:00;;;;;;;32.17;17.88;;;12.80;99.90;;;;;;5045095;28;20480;-74
2023/04/16 09:37:30;;;;;;;38.35;19.10;;;12.90;99.90;;;;;;5045359;28;20409;-76
2023/04/16 09:40:01;;;;;;;38.13;19.67;;;12.70;99.90;;;;;;5043637;28;20408;-76
2023/04/16 09:42:35;;;;;;;38.88;19.95;;;12.80;99.90;;;;;;5042685;28;20410;-75
2023/04/16 09:45:01;;;;;;;32.72;18.13;;;12.70;99.90;;;;;;5045220;28;20401;-77
2023/04/16 09:47:43;;;;;;;31.58;18.80;;;12.90;99.90;;;;;;5044826;28;20912;-76
2023/04/16 09:50:16;;;;;;;33.80;19.27;;;12.50;99.90;;;;;;5043772;28;20421;-76
2023/04/16 09:52:44;;;;;;;40.73;19.53;;;12.90;99.90;;;;;;5044747;28;20424;-78
2023/04/16 09:55:10;;;;;;;37.65;19.75;;;13.00;99.90;;;;;;5044618;28;20433;-77
2023/04/16 09:57:38;;;;;;;33.58;19.98;;;13.00;99.90;;;;;;5042750;28;21783;-77
2023/04/16 10:00:06;;;;;;;35.22;20.38;;;12.90;99.90;;;;;;5044912;28;20413;-77
2023/04/16 10:02:33;;;;;;;36.13;19.52;;;12.70;99.90;;;;;;5043204;28;20479;-77
2023/04/16 10:05:04;;;;;;;43.35;20.95;;;12.80;99.90;;;;;;5043277;28;20413;-76
2023/04/16 10:07:35;;;;;;;40.47;20.92;;;12.80;99.90;;;;;;5044540;28;20908;-76
2023/04/16 10:10:02;;;;;;;34.25;19.02;;;12.90;99.90;;;;;;5045104;28;20425;-76
2023/04/16 10:12:29;;;;;;;40.40;20.40;;;12.80;99.90;;;;;;5043397;28;20402;-76
2023/04/16 10:14:55;;;;;;;36.08;19.55;;;12.70;99.90;;;;;;5044345;28;20418;-76
2023/04/16 10:17:21;;;;;;;37.30;19.20;;;12.80;99.90;;;;;;5044272;28;20443;-77
2023/04/16 10:19:47;;;;;;;39.43;20.17;;;13.10;99.90;;;;;;5044029;28;20840;-76
2023/04/16 10:22:13;;;;;;;40.40;20.25;;;12.80;99.90;;;;;;5044172;28;20488;-76
2023/04/16 10:24:40;;;;;;;35.15;20.17;;;13.10;99.90;;;;;;5042741;28;20501;-76
2023/04/16 10:27:06;;;;;;;32.15;18.45;;;13.00;99.90;;;;;;5043774;28;20817;-78
2023/04/16 10:29:32;;;;;;;32.93;19.13;;;12.90;99.90;;;;;;5044197;28;20447;-75
2023/04/16 10:31:59;;;;;;;33.58;19.27;;;12.80;99.90;;;;;;5043670;28;20409;-77
2023/04/16 10:34:25;;;;;;;38.58;20.42;;;12.90;99.90;;;;;;5044000;28;20402;-75
2023/04/16 10:36:53;;;;;;;41.72;21.23;;;12.70;99.90;;;;;;5043527;28;20484;-76
2023/04/16 10:39:26;;;;;;;37.90;19.58;;;12.90;99.90;;;;;;5043973;28;20445;-76
2023/04/16 10:42:07;;;;;;;38.43;18.60;;;13.00;99.90;;;;;;5043055;28;20500;-74
2023/04/16 10:44:33;;;;;;;32.25;18.25;;;13.00;99.90;;;;;;5043574;28;20402;-78
2023/04/16 10:46:59;;;;;;;32.58;19.38;;;12.90;99.90;;;;;;5043797;28;20463;-76
2023/04/16 10:49:25;;;;;;;32.22;20.05;;;12.50;99.90;;;;;;5043941;28;20493;-76
2023/04/16 10:51:58;;;;;;;39.47;21.03;;;12.40;99.90;;;;;;5043569;28;20413;-78
2023/04/16 10:54:28;;;;;;;38.20;20.75;;;12.60;99.90;;;;;;5043897;28;20444;-77
2023/04/16 10:56:57;;;;;;;38.63;20.45;;;12.20;99.90;;;;;;5042561;28;20420;-76
2023/04/16 10:59:23;;;;;;;39.25;22.65;;;12.40;99.90;;;;;;5043035;28;20799;-77
2023/04/16 11:01:58;;;;;;;39.05;19.88;;;12.50;99.90;;;;;;5042633;28;20448;-77
2023/04/16 11:04:23;;;;;;;37.05;19.33;;;12.70;99.90;;;;;;5043902;28;20504;-76
2023/04/16 11:07:15;;;;;;;38.75;20.30;;;12.40;99.90;;;;;;5043204;28;20504;-75
2023/04/16 11:10:01;;;;;;;38.88;20.38;;;12.30;99.90;;;;;;5036312;28;20509;-78
2023/04/16 11:12:39;;;;;;;34.38;19.98;;;12.30;99.90;;;;;;5042739;28;21150;-77
2023/04/16 11:15:05;;;;;;;43.05;21.50;;;12.30;99.90;;;;;;5044324;28;20408;-77
2023/04/16 11:17:37;;;;;;;40.03;22.23;;;12.10;99.90;;;;;;5044016;28;20780;-77
2023/04/16 11:20:05;;;;;;;41.00;20.92;;;12.10;99.90;;;;;;5043956;28;20416;-76
2023/04/16 11:22:35;;;;;;;45.67;22.35;;;12.30;99.90;;;;;;5025539;28;20474;-77
2023/04/16 11:25:01;;;;;;;39.27;20.40;;;12.20;99.90;;;;;;5043857;28;20487;-76
2023/04/16 11:27:30;;;;;;;37.88;21.30;;;12.20;99.90;;;;;;5042776;28;20416;-76
2023/04/16 11:30:07;;;;;;;37.80;20.55;;;12.30;99.90;;;;;;5043755;28;21051;-76
2023/04/16 11:32:33;;;;;;;36.00;19.63;;;12.50;99.90;;;;;;5042496;28;20409;-77
2023/04/16 11:35:03;;;;;;;40.67;20.02;;;12.30;99.90;;;;;;5043505;28;20979;-77
2023/04/16 11:37:36;;;;;;;35.97;20.05;;;12.10;99.90;;;;;;5042058;28;20493;-77
2023/04/16 11:40:07;;;;;;;39.72;20.73;;;12.30;99.90;;;;;;5042151;28;20433;-77
2023/04/16 11:42:40;;;;;;;35.22;20.30;;;12.30;99.90;;;;;;5042277;28;20401;-76
2023/04/16 11:45:07;;;;;;;39.47;19.70;;;12.10;99.90;;;;;;5043568;28;20404;-76
2023/04/16 11:47:45;;;;;;;34.22;19.30;;;12.00;99.90;;;;;;5043580;28;20412;-75
2023/04/16 11:50:22;;;;;;;30.37;19.67;;;12.40;99.90;;;;;;5043281;28;20436;-76
2023/04/16 11:52:49;;;;;;;27.73;19.33;;;12.40;99.90;;;;;;5042315;28;20429;-77
2023/04/16 11:55:14;;;;;;;32.70;20.05;;;12.30;99.90;;;;;;5041683;28;20475;-76
2023/04/16 11:57:40;;;;;;;35.70;20.17;;;12.60;99.90;;;;;;5041881;28;20456;-77
2023/04/16 12:00:11;;;;;;;30.33;19.13;;;13.00;99.90;;;;;;5042949;28;20405;-76
2023/04/16 12:02:40;;;;;;;33.50;19.27;;;12.90;99.90;;;;;;5042345;28;21013;-76
2023/04/16 12:05:29;;;;;;;32.40;19.90;;;12.80;99.90;;;;;;5043920;28;20928;-77
2023/04/16 12:07:56;;;;;;;31.58;18.92;;;12.80;99.90;;;;;;5043595;28;21103;-76
2023/04/16 12:10:22;;;;;;;36.13;18.80;;;12.80;99.90;;;;;;5011391;28;20429;-76
2023/04/16 12:12:48;;;;;;;32.60;19.30;;;12.70;99.90;;;;;;5044635;28;20401;-75
2023/04/16 12:15:14;;;;;;;31.27;20.50;;;12.80;99.90;;;;;;5046682;28;20499;-76
2023/04/16 12:17:40;;;;;;;28.60;18.45;;;13.10;99.90;;;;;;5044950;28;20896;-76
2023/04/16 12:20:11;;;;;;;31.88;18.95;;;13.00;99.90;;;;;;5046758;28;20472;-76
2023/04/16 12:22:38;;;;;;;36.92;19.25;;;12.80;99.90;;;;;;5045967;28;20409;-77
2023/04/16 12:25:15;;;;;;;38.60;19.58;;;12.90;99.90;;;;;;5046661;28;20413;-76
2023/04/16 12:27:52;;;;;;;33.90;18.40;;;12.80;99.90;;;;;;5044903;28;20405;-77
2023/04/16 12:30:19;;;;;;;30.55;19.10;;;12.90;99.90;;;;;;5046391;28;20425;-76
2023/04/16 12:32:48;;;;;;;33.22;18.00;;;13.00;99.90;;;;;;5045606;28;20586;-77